Date,TemperatureHighF,TemperatureAvgF,TemperatureLowF,DewpointHighF,DewpointAvgF,DewpointLowF,HumidityHigh,HumidityAvg,HumidityLow,PressureMaxIn,PressureMinIn,WindSpeedMaxMPH,WindSpeedAvgMPH,GustSpeedMaxMPH,PrecipitationSumIn
2013-2-1,37,31,22,24,15,8,72,52,37,0.00,0.00,0,0,0,0.00
2013-2-2,35,27,20,23,15,7,76,61,46,0.00,0.00,0,0,0,0.00
2013-2-3,41,33,27,32,24,19,82,71,56,0.00,0.00,0,0,0,0.00
2013-2-4,38,31,24,23,20,16,73,62,52,0.00,0.00,0,0,0,0.00
2013-2-5,59,41,31,40,29,21,74,62,47,0.00,0.00,0,0,0,0.00
2013-2-6,60,42,29,37,28,22,80,61,38,0.00,0.00,0,0,0,0.00
2013-2-7,42,37,32,28,26,22,72,64,55,0.00,0.00,0,0,0,0.00
2013-2-8,53,40,34,43,32,25,86,74,59,0.00,0.00,0,0,0,0.00
2013-2-9,55,39,29,26,21,16,66,50,30,0.00,0.00,0,0,0,0.00
2013-2-10,48,34,21,27,20,12,71,57,40,0.00,0.00,0,0,0,0.00
2013-2-11,54,46,37,50,40,28,86,81,65,0.00,0.00,0,0,0,0.00
2013-2-12,62,51,44,38,31,28,66,47,33,0.00,0.00,0,0,0,0.00
2013-2-13,45,40,35,34,31,28,81,69,55,0.00,0.00,0,0,0,0.00
2013-2-14,59,40,28,36,29,23,86,66,38,0.00,0.00,0,0,0,0.00
2013-2-15,67,44,27,41,31,21,80,62,34,0.00,0.00,0,0,0,0.00
2013-2-16,42,37,30,35,30,19,83,76,64,0.00,0.00,0,0,0,0.00
2013-2-17,38,28,23,19,13,8,69,53,36,0.00,0.00,0,0,0,0.00
2013-2-18,52,33,18,25,16,8,67,52,35,0.00,0.00,0,0,0,0.00
2013-2-19,49,37,31,42,30,20,84,74,60,0.00,0.00,0,0,0,0.00
2013-2-20,52,38,30,26,21,15,64,51,33,0.00,0.00,0,0,0,0.00
2013-2-21,52,37,26,26,20,15,65,50,35,0.00,0.00,0,0,0,0.00
2013-2-22,39,35,32,28,23,18,71,61,52,0.00,0.00,0,0,0,0.00
2013-2-23,52,40,35,43,34,27,84,78,71,0.00,0.00,0,0,0,0.00
2013-2-24,65,46,35,43,34,22,86,64,32,0.00,0.00,0,0,0,0.00
2013-2-25,48,36,27,26,21,17,70,56,40,0.00,0.00,0,0,0,0.00
2013-2-26,42,35,28,39,28,18,88,77,63,0.00,0.00,0,0,0,0.00
2013-2-27,59,46,40,47,38,32,88,75,51,0.00,0.00,0,0,0,0.00
2013-2-28,49,41,36,33,30,26,78,65,50,0.00,0.00,0,0,0,0.00